Time;durP1;ratioP1;P1;durP2;ratioP2;P2;SDS_P1;SDS_P2;PMS_P1;PMS_P2;Temp;Humidity;BMP_temperature;BMP_pressure;BME280_temperature;BME280_humidity;BME280_pressure;Samples;Min_cycle;Max_cycle;Signal;HPM_P1;HPM_P2
2022/06/15 00:01:55;;;;;;;5.20;1.85;;;;;;;24.64;33.97;101761.38;5012523;28;20026;-75
2022/06/15 00:04:21;;;;;;;4.82;1.67;;;;;;;24.55;34.01;101758.88;5013125;28;20392;-75
2022/06/15 00:06:47;;;;;;;2.33;1.67;;;;;;;24.44;34.14;101762.75;5013045;28;20026;-79
2022/06/15 00:09:13;;;;;;;4.90;1.80;;;;;;;24.38;34.09;101769.88;5013028;28;20105;-75
2022/06/15 00:11:41;;;;;;;2.92;1.90;;;;;;;24.33;34.03;101759.84;5013000;28;20057;-75
2022/06/15 00:14:11;;;;;;;4.78;1.88;;;;;;;24.20;34.47;101759.28;5012804;28;20096;-75
2022/06/15 00:16:36;;;;;;;4.50;1.85;;;;;;;24.11;34.42;101753.19;5012895;28;20480;-74
2022/06/15 00:19:04;;;;;;;3.85;1.58;;;;;;;24.11;34.47;101753.19;5012963;28;20029;-74
2022/06/15 00:21:31;;;;;;;2.93;1.87;;;;;;;24.18;34.31;101750.50;5012788;28;20046;-74
2022/06/15 00:23:57;;;;;;;4.88;1.73;;;;;;;24.30;34.14;101752.19;5012799;28;20112;-78
2022/06/15 00:26:24;;;;;;;4.63;1.80;;;;;;;24.35;34.04;101744.31;5012781;28;20515;-76
2022/06/15 00:28:51;;;;;;;2.13;1.70;;;;;;;24.08;34.54;101740.00;5012793;28;20064;-75
2022/06/15 00:31:18;;;;;;;3.58;1.63;;;;;;;24.21;34.15;101743.34;5012786;28;20048;-76
2022/06/15 00:33:44;;;;;;;4.05;1.65;;;;;;;24.04;34.22;101742.75;5012857;28;20116;-74
2022/06/15 00:36:14;;;;;;;2.17;1.40;;;;;;;23.98;34.51;101747.06;5012763;28;20447;-75
2022/06/15 00:38:42;;;;;;;3.28;1.77;;;;;;;23.96;34.60;101732.69;5012814;28;20026;-75
2022/06/15 00:41:14;;;;;;;2.95;1.58;;;;;;;23.96;34.37;101735.47;5012615;28;20034;-75
2022/06/15 00:43:43;;;;;;;2.70;1.63;;;;;;;23.96;34.52;101738.28;5012663;28;20034;-75
2022/06/15 00:46:31;;;;;;;3.27;1.93;;;;;;;23.95;34.76;101735.84;4995023;28;20033;-74
2022/06/15 00:49:08;;;;;;;4.05;1.90;;;;;;;23.95;34.75;101735.84;5012587;28;20034;-75
2022/06/15 00:51:35;;;;;;;2.05;1.60;;;;;;;24.09;34.35;101739.59;5012640;28;20026;-75
2022/06/15 00:54:03;;;;;;;3.75;1.70;;;;;;;24.11;34.72;101733.66;5012458;28;20029;-76
2022/06/15 00:56:32;;;;;;;4.15;1.73;;;;;;;24.08;34.55;101732.41;5012563;28;20069;-75
2022/06/15 00:59:03;;;;;;;2.13;1.42;;;;;;;24.08;34.69;101735.22;5012574;28;20152;-75
2022/06/15 01:01:29;;;;;;;3.53;1.60;;;;;;;24.04;34.67;101730.78;5012437;28;20029;-75
2022/06/15 01:03:57;;;;;;;2.60;1.65;;;;;;;24.03;34.93;101732.78;5012445;28;20030;-75
2022/06/15 01:06:42;;;;;;;5.45;2.38;;;;;;;24.05;34.71;101729.59;5012450;28;20480;-76
2022/06/15 01:09:22;;;;;;;3.25;1.55;;;;;;;24.02;34.87;101719.19;4994845;28;20397;-79
2022/06/15 01:12:20;;;;;;;3.97;1.88;;;;;;;24.03;34.65;101727.19;5012429;28;20159;-75
2022/06/15 01:15:14;;;;;;;4.63;2.03;;;;;;;23.88;35.16;101732.97;5016097;28;20124;-75
2022/06/15 01:18:00;;;;;;;3.58;1.90;;;;;;;23.84;35.08;101732.13;5016509;28;20378;-75
2022/06/15 01:20:29;;;;;;;3.17;2.00;;;;;;;23.93;34.88;101727.84;4998491;28;20037;-74
2022/06/15 01:23:32;;;;;;;4.22;2.13;;;;;;;23.73;35.44;101729.22;4998446;28;20046;-75
2022/06/15 01:26:25;;;;;;;3.30;2.00;;;;;;;23.55;35.65;101734.50;5016003;28;20026;-75
2022/06/15 01:28:57;;;;;;;6.85;2.90;;;;;;;23.60;35.73;101733.38;4998365;28;20030;-76
2022/06/15 01:31:59;;;;;;;8.73;2.65;;;;;;;23.13;36.67;101727.16;5015925;28;20420;-78
2022/06/15 01:34:40;;;;;;;5.95;3.00;;;;;;;23.12;36.70;101719.94;5013830;28;20096;-77
2022/06/15 01:37:18;;;;;;;6.18;3.17;;;;;;;23.58;35.61;101721.78;5015831;28;20037;-75
2022/06/15 01:39:50;;;;;;;3.83;2.55;;;;;;;23.59;35.66;101717.84;4998148;28;20476;-75
2022/06/15 01:42:25;;;;;;;8.27;3.50;;;;;;;23.57;35.75;101720.97;5015769;28;20034;-75
2022/06/15 01:44:58;;;;;;;6.68;4.00;;;;;;;23.40;36.08;101732.69;5015645;28;20547;-75
2022/06/15 01:47:26;;;;;;;6.10;3.08;;;;;;;23.47;35.87;101732.81;4998130;28;20432;-75
2022/06/15 01:49:57;;;;;;;5.70;2.75;;;;;;;23.45;36.01;101740.75;5015551;28;20030;-75
2022/06/15 01:52:27;;;;;;;4.93;3.35;;;;;;;23.47;35.92;101738.38;5015545;28;20088;-75
2022/06/15 01:54:58;;;;;;;5.57;3.67;;;;;;;23.44;36.01;101737.16;5015494;28;20029;-76
2022/06/15 01:57:26;;;;;;;6.55;4.18;;;;;;;23.28;36.49;101732.94;4997885;28;20032;-75
2022/06/15 02:00:17;;;;;;;6.03;4.70;;;;;;;23.31;36.50;101732.19;5015361;28;20167;-75
2022/06/15 02:03:08;;;;;;;6.68;4.25;;;;;;;23.19;36.47;101728.41;5015025;28;20042;-75
2022/06/15 02:05:42;;;;;;;5.78;3.92;;;;;;;23.24;36.47;101736.47;5015362;28;20057;-75
2022/06/15 02:08:38;;;;;;;9.43;3.50;;;;;;;23.16;36.70;101733.94;5015569;28;20026;-75
2022/06/15 02:11:15;;;;;;;5.40;3.38;;;;;;;23.11;37.23;101723.09;4997676;28;20030;-75
2022/06/15 02:13:46;;;;;;;7.10;3.55;;;;;;;23.15;36.70;101727.56;5015029;28;20562;-75
2022/06/15 02:16:17;;;;;;;6.97;3.38;;;;;;;22.97;37.33;101720.91;5015198;28;20077;-75
2022/06/15 02:18:46;;;;;;;4.18;2.78;;;;;;;22.91;37.35;101728.78;5015096;28;20034;-75
2022/06/15 02:21:16;;;;;;;6.40;3.90;;;;;;;22.91;37.27;101726.00;5014980;28;20030;-75
2022/06/15 02:23:46;;;;;;;5.30;3.35;;;;;;;22.95;37.16;101726.06;5015034;28;20052;-76
2022/06/15 02:26:15;;;;;;;4.43;3.33;;;;;;;22.94;37.22;101719.69;5014295;28;20096;-80
2022/06/15 02:28:46;;;;;;;5.68;3.38;;;;;;;22.98;37.25;101728.09;5014946;28;20072;-75
2022/06/15 02:31:12;;;;;;;5.80;3.08;;;;;;;22.96;37.27;101722.88;5014859;28;20026;-74
2022/06/15 02:33:45;;;;;;;5.00;3.17;;;;;;;22.97;37.21;101718.94;5014813;28;20420;-75
2022/06/15 02:36:11;;;;;;;5.05;2.80;;;;;;;22.99;37.47;101718.56;5014746;28;20057;-75
2022/06/15 02:38:36;;;;;;;6.55;3.00;;;;;;;23.00;37.36;101722.97;5014753;28;20061;-75
2022/06/15 02:41:02;;;;;;;4.68;2.60;;;;;;;23.01;37.31;101720.97;5014617;28;20025;-75
2022/06/15 02:43:31;;;;;;;4.00;2.72;;;;;;;23.01;37.34;101721.78;5014567;28;20097;-75
2022/06/15 02:46:00;;;;;;;4.43;2.90;;;;;;;23.02;37.74;101720.59;5014557;28;20029;-75
2022/06/15 02:48:27;;;;;;;3.90;2.92;;;;;;;22.97;37.73;101720.91;5014475;28;20093;-75
2022/06/15 02:51:23;;;;;;;6.13;3.25;;;;;;;22.88;38.00;101717.56;5014512;28;20124;-75
2022/06/15 02:53:51;;;;;;;3.67;2.53;;;;;;;22.75;38.04;101718.91;5014408;28;20062;-75
2022/06/15 02:56:19;;;;;;;5.90;2.90;;;;;;;22.84;37.98;101711.13;5014314;28;20026;-75
2022/06/15 02:58:48;;;;;;;3.45;2.60;;;;;;;22.78;37.82;101713.41;5014271;28;20030;-76
2022/06/15 03:01:14;;;;;;;5.65;2.95;;;;;;;22.86;37.94;101719.94;5014259;28;20029;-79
2022/06/15 03:03:40;;;;;;;4.10;2.97;;;;;;;22.81;37.86;101714.63;4996599;28;20026;-75
2022/06/15 03:06:14;;;;;;;4.50;3.00;;;;;;;22.67;38.10;101720.78;5014122;28;20036;-80
2022/06/15 03:08:40;;;;;;;5.53;2.60;;;;;;;22.58;38.13;101723.81;5014124;28;20080;-75
2022/06/15 03:11:06;;;;;;;7.47;3.10;;;;;;;22.49;38.25;101714.91;5014131;28;20030;-79
2022/06/15 03:13:32;;;;;;;4.82;3.03;;;;;;;22.37;38.35;101717.88;5013778;28;20026;-74
2022/06/15 03:16:00;;;;;;;6.78;3.13;;;;;;;22.37;38.42;101723.44;5013729;28;20107;-75
2022/06/15 03:18:27;;;;;;;4.43;2.58;;;;;;;22.32;38.64;101727.34;5013919;28;20018;-78
2022/06/15 03:21:00;;;;;;;6.63;3.17;;;;;;;22.23;39.09;101707.28;5013925;28;20037;-75
2022/06/15 03:23:27;;;;;;;6.13;3.55;;;;;;;22.32;38.64;101720.97;5013846;28;20135;-74
2022/06/15 03:25:54;;;;;;;5.25;3.00;;;;;;;22.29;38.80;101718.91;5013832;28;20443;-75
2022/06/15 03:28:19;;;;;;;4.25;2.47;;;;;;;22.41;38.40;101727.09;4996083;28;20021;-75
2022/06/15 03:30:45;;;;;;;6.15;2.75;;;;;;;22.45;38.28;101721.59;5013693;28;20051;-75
2022/06/15 03:33:11;;;;;;;6.90;3.25;;;;;;;22.28;38.71;101720.06;5013758;28;20053;-75
2022/06/15 03:35:36;;;;;;;5.35;3.15;;;;;;;22.23;38.79;101725.97;5013509;28;20025;-75
2022/06/15 03:38:03;;;;;;;5.32;3.45;;;;;;;22.26;38.82;101720.44;5012828;28;20049;-75
2022/06/15 03:40:30;;;;;;;7.05;3.40;;;;;;;22.26;38.80;101719.66;5013448;28;20546;-75
2022/06/15 03:42:55;;;;;;;4.35;3.05;;;;;;;22.15;39.05;101717.47;5013567;28;20539;-76
2022/06/15 03:45:21;;;;;;;6.70;3.10;;;;;;;22.08;39.31;101722.09;5013510;28;20116;-75
2022/06/15 03:47:47;;;;;;;6.65;3.28;;;;;;;22.06;39.31;101732.75;5013337;28;20025;-75
2022/06/15 03:50:13;;;;;;;6.70;3.80;;;;;;;21.96;39.55;101734.16;5013364;28;20026;-75
2022/06/15 03:52:38;;;;;;;6.25;3.75;;;;;;;21.92;39.44;101726.91;5013418;28;20480;-75
2022/06/15 03:55:04;;;;;;;6.90;3.15;;;;;;;21.82;39.55;101731.88;5013342;28;20036;-75
2022/06/15 03:57:32;;;;;;;7.10;3.25;;;;;;;21.79;39.82;101734.59;5013221;28;20032;-75
2022/06/15 03:59:57;;;;;;;6.25;3.47;;;;;;;21.79;39.66;101734.59;5013150;28;20028;-75
2022/06/15 04:02:23;;;;;;;5.60;3.22;;;;;;;21.77;39.75;101737.75;5013164;28;20026;-76
2022/06/15 04:04:49;;;;;;;5.22;3.50;;;;;;;21.76;39.82;101735.31;4995592;28;20022;-75
2022/06/15 04:09:58;;;;;;;5.93;3.90;;;;;;;21.72;39.92;101740.00;5013137;28;20037;-75
2022/06/15 04:12:24;;;;;;;7.80;3.83;;;;;;;21.73;39.96;101730.50;5013075;28;20030;-75
2022/06/15 04:14:50;;;;;;;6.75;3.92;;;;;;;21.71;39.84;101741.19;5012743;28;20078;-75
2022/06/15 04:17:17;;;;;;;9.27;4.07;;;;;;;21.75;39.91;101745.63;5012941;28;20033;-75
2022/06/15 04:19:43;;;;;;;5.72;3.75;;;;;;;21.78;39.82;101741.34;5012923;28;20069;-75
2022/06/15 04:22:09;;;;;;;7.53;4.00;;;;;;;21.82;39.73;101747.75;5012846;28;20104;-75
2022/06/15 04:24:36;;;;;;;6.75;4.82;;;;;;;21.91;39.81;101744.75;5013062;28;20057;-75
2022/06/15 04:27:02;;;;;;;15.50;5.50;;;;;;;21.98;39.74;101742.13;5012889;28;20099;-74
2022/06/15 04:29:28;;;;;;;7.45;3.67;;;;;;;22.02;39.58;101746.59;5012781;28;20030;-75
2022/06/15 04:31:53;;;;;;;7.18;4.10;;;;;;;22.31;39.04;101748.00;5012812;28;20048;-74
2022/06/15 04:34:19;;;;;;;9.80;4.65;;;;;;;22.22;39.35;101736.28;5012849;28;20038;-75
2022/06/15 04:36:45;;;;;;;9.48;4.10;;;;;;;22.26;39.32;101739.13;5012781;28;20030;-75
2022/06/15 04:39:13;;;;;;;7.68;3.67;;;;;;;21.98;40.08;101751.28;5012722;28;20056;-75
2022/06/15 04:41:40;;;;;;;6.47;4.00;;;;;;;22.01;40.09;101758.09;5029321;28;20033;-75
2022/06/15 04:44:08;;;;;;;7.25;4.25;;;;;;;22.01;40.41;101752.53;5032385;28;20452;-75
2022/06/15 04:46:34;;;;;;;7.68;4.13;;;;;;;22.03;40.16;101761.31;5031381;28;20025;-75
2022/06/15 04:49:00;;;;;;;9.93;4.50;;;;;;;22.02;40.19;101754.94;5034575;28;20033;-75
2022/06/15 04:51:29;;;;;;;6.32;3.90;;;;;;;22.04;40.20;101768.50;5036477;28;20060;-75
2022/06/15 04:53:56;;;;;;;11.25;4.78;;;;;;;22.04;40.21;101763.72;5036417;28;20039;-74
2022/06/15 04:56:25;;;;;;;10.52;4.90;;;;;;;21.99;40.29;101766.81;5036354;28;20029;-75
2022/06/15 04:58:51;;;;;;;7.20;5.07;;;;;;;22.13;40.10;101767.13;5036324;28;20082;-75
2022/06/15 05:01:17;;;;;;;7.80;4.28;;;;;;;22.20;39.75;101760.09;5036167;28;20766;-75
2022/06/15 05:03:43;;;;;;;8.73;4.28;;;;;;;22.19;39.89;101762.06;5036298;28;20053;-75
2022/06/15 05:06:09;;;;;;;7.22;4.20;;;;;;;22.08;40.39;101770.22;5036165;28;20060;-75
2022/06/15 05:08:35;;;;;;;10.18;6.32;;;;;;;22.04;40.46;101777.66;5036085;28;20652;-75
2022/06/15 05:11:00;;;;;;;6.88;4.07;;;;;;;22.17;40.08;101767.22;5036143;28;20100;-75
2022/06/15 05:13:27;;;;;;;10.55;4.70;;;;;;;22.33;40.07;101772.69;5036006;28;20026;-75
2022/06/15 05:15:52;;;;;;;17.08;5.45;;;;;;;22.35;40.11;101773.13;5035838;28;20038;-80
2022/06/15 05:18:18;;;;;;;15.05;4.85;;;;;;;22.29;40.25;101769.00;5035980;28;20511;-75
2022/06/15 05:20:43;;;;;;;5.00;3.80;;;;;;;22.35;40.13;101764.75;5018181;28;20108;-75
2022/06/15 05:23:16;;;;;;;5.45;3.78;;;;;;;22.37;39.98;101768.00;5035870;28;20025;-75
2022/06/15 05:25:42;;;;;;;9.48;4.40;;;;;;;22.30;39.95;101765.06;5035956;28;20069;-75
2022/06/15 05:28:09;;;;;;;9.23;5.15;;;;;;;22.21;40.19;101770.03;5035894;28;20484;-75
2022/06/15 05:30:36;;;;;;;17.88;5.93;;;;;;;22.27;40.22;101771.38;5035737;28;20025;-75
2022/06/15 05:33:02;;;;;;;8.40;4.63;;;;;;;22.43;39.63;101766.50;5035663;28;20024;-79
2022/06/15 05:35:28;;;;;;;9.32;4.88;;;;;;;22.46;39.66;101767.75;5035691;28;20475;-75
2022/06/15 05:37:54;;;;;;;8.63;4.55;;;;;;;22.43;39.89;101769.28;5035661;28;20376;-75
2022/06/15 05:40:20;;;;;;;13.05;4.70;;;;;;;22.52;39.85;101763.47;5035482;28;20035;-79
2022/06/15 05:42:45;;;;;;;6.45;3.72;;;;;;;22.69;39.84;101766.59;5035489;28;20100;-75
2022/06/15 05:45:11;;;;;;;16.17;5.53;;;;;;;22.65;39.84;101764.91;5017678;28;20026;-75
2022/06/15 05:47:37;;;;;;;10.25;4.90;;;;;;;22.81;39.69;101767.56;5017738;28;20427;-80
2022/06/15 05:50:04;;;;;;;10.77;5.10;;;;;;;22.83;39.74;101770.81;5035437;28;20025;-79
2022/06/15 05:52:29;;;;;;;8.85;4.82;;;;;;;22.87;39.75;101771.69;5030888;28;20028;-75
2022/06/15 05:54:58;;;;;;;6.88;4.50;;;;;;;22.97;39.32;101777.47;5026243;28;20042;-75
2022/06/15 05:57:25;;;;;;;11.43;4.75;;;;;;;23.10;39.19;101766.91;5023853;28;20018;-75
2022/06/15 05:59:51;;;;;;;11.07;4.68;;;;;;;23.21;39.43;101770.69;5023893;28;20028;-74
2022/06/15 06:02:19;;;;;;;10.10;5.13;;;;;;;23.59;38.83;101777.22;5023353;28;20093;-75
2022/06/15 06:04:45;;;;;;;11.23;4.10;;;;;;;23.71;38.77;101776.19;5027789;28;20400;-76
2022/06/15 06:07:11;;;;;;;8.45;4.72;;;;;;;23.88;38.66;101777.63;5022082;28;20022;-80
2022/06/15 06:09:37;;;;;;;10.27;4.22;;;;;;;24.00;38.51;101774.59;5026653;28;20025;-76
2022/06/15 06:12:04;;;;;;;9.93;4.22;;;;;;;24.12;38.09;101770.75;5029020;28;20018;-76
2022/06/15 06:14:30;;;;;;;10.63;5.10;;;;;;;24.00;38.40;101769.81;5033065;28;20040;-76
2022/06/15 06:16:55;;;;;;;25.52;6.80;;;;;;;24.03;38.65;101768.22;5034753;28;20100;-75
2022/06/15 06:19:22;;;;;;;9.13;4.53;;;;;;;24.09;38.13;101763.94;5034417;28;20472;-75
2022/06/15 06:21:47;;;;;;;12.30;4.80;;;;;;;24.24;37.54;101762.91;5034507;28;20032;-76
2022/06/15 06:24:13;;;;;;;10.35;4.68;;;;;;;24.48;37.26;101760.78;5034727;28;20033;-75
2022/06/15 06:26:39;;;;;;;10.07;4.10;;;;;;;24.63;37.23;101759.75;5034649;28;20122;-81
2022/06/15 06:29:06;;;;;;;14.98;4.75;;;;;;;24.61;37.05;101762.13;5016731;28;20037;-76
2022/06/15 06:31:32;;;;;;;9.50;3.90;;;;;;;24.48;36.90;101763.59;5034063;28;20057;-78
2022/06/15 06:33:57;;;;;;;12.25;4.28;;;;;;;24.62;37.05;101770.13;5034498;28;20161;-80
2022/06/15 06:36:30;;;;;;;11.95;4.28;;;;;;;24.73;36.81;101766.63;5034481;28;20025;-75
2022/06/15 06:38:56;;;;;;;8.15;4.18;;;;;;;24.80;36.78;101764.72;5034393;28;20056;-75
2022/06/15 06:41:24;;;;;;;9.60;4.43;;;;;;;24.88;36.20;101771.16;5034231;28;20116;-76
2022/06/15 06:43:50;;;;;;;13.00;4.78;;;;;;;25.00;35.91;101781.22;5034368;28;20033;-74
2022/06/15 06:46:17;;;;;;;21.17;4.28;;;;;;;24.98;36.45;101780.81;5034292;28;20112;-75
2022/06/15 06:48:43;;;;;;;14.13;5.50;;;;;;;25.04;36.00;101779.31;5034106;28;20030;-74
2022/06/15 06:51:09;;;;;;;8.32;3.63;;;;;;;25.22;35.78;101780.25;5033695;28;20044;-76
2022/06/15 06:53:35;;;;;;;10.68;3.35;;;;;;;25.22;35.63;101774.66;5034117;28;20037;-76
2022/06/15 06:56:07;;;;;;;9.55;3.58;;;;;;;25.21;36.03;101784.22;5020140;28;20021;-81
2022/06/15 06:58:33;;;;;;;10.18;3.20;;;;;;;25.44;35.18;101782.00;5001531;28;20029;-83
2022/06/15 07:00:59;;;;;;;12.50;3.28;;;;;;;25.16;35.48;101787.38;5000139;28;20154;-82
2022/06/15 07:03:25;;;;;;;20.67;3.75;;;;;;;25.21;35.64;101791.81;5005642;28;20083;-82
2022/06/15 07:05:51;;;;;;;15.23;4.13;;;;;;;25.16;35.57;101787.38;5033024;28;20021;-83
2022/06/15 07:08:17;;;;;;;8.82;3.67;;;;;;;25.27;35.28;101788.28;5029935;28;20029;-82
2022/06/15 07:10:43;;;;;;;8.32;3.88;;;;;;;25.33;34.88;101795.13;5024653;28;20048;-85
2022/06/15 07:13:09;;;;;;;5.90;2.85;;;;;;;25.44;34.59;101789.59;5008941;28;20392;-82
2022/06/15 07:15:36;;;;;;;6.10;2.70;;;;;;;25.47;34.69;101780.44;5025357;28;20591;-83
2022/06/15 07:18:02;;;;;;;11.13;3.05;;;;;;;25.57;34.24;101787.28;5004506;28;20033;-80
2022/06/15 07:20:30;;;;;;;10.77;3.33;;;;;;;25.67;34.02;101776.13;4996551;28;20057;-81
2022/06/15 07:22:57;;;;;;;8.02;3.38;;;;;;;25.76;33.91;101786.19;5015373;28;20546;-88
2022/06/15 07:25:23;;;;;;;9.95;3.13;;;;;;;25.95;33.43;101786.72;4998330;28;20072;-89
2022/06/15 07:27:49;;;;;;;18.70;4.25;;;;;;;25.82;33.28;101787.44;4998134;28;20058;-87
2022/06/15 07:30:19;;;;;;;9.65;2.97;;;;;;;26.06;33.24;101786.75;5003306;28;20036;-86
2022/06/15 07:32:45;;;;;;;6.55;2.83;;;;;;;26.24;32.77;101793.22;5002256;28;20506;-85
2022/06/15 07:35:18;;;;;;;14.00;3.72;;;;;;;26.44;32.56;101793.69;4997036;28;20040;-86
2022/06/15 07:37:45;;;;;;;4.70;2.33;;;;;;;26.51;32.38;101792.91;4999643;28;20488;-88
2022/06/15 07:40:11;;;;;;;8.60;2.92;;;;;;;26.62;32.46;101798.56;5009990;28;20029;-86
2022/06/15 07:42:38;;;;;;;6.05;2.47;;;;;;;26.70;32.56;101806.56;5010730;28;20769;-87
2022/06/15 07:45:04;;;;;;;9.15;3.15;;;;;;;26.71;32.36;101801.75;5002392;28;20029;-86
2022/06/15 07:50:16;;;;;;;24.55;19.13;;;;;;;26.51;31.78;101810.53;5025102;28;20396;-86
2022/06/15 07:52:44;;;;;;;6.13;2.95;;;;;;;26.63;31.34;101806.56;5015531;28;20034;-86
2022/06/15 07:55:14;;;;;;;16.08;4.20;;;;;;;26.63;31.94;101805.75;5014571;28;20141;-87
2022/06/15 07:57:39;;;;;;;12.60;3.33;;;;;;;26.79;31.64;101808.97;5009284;28;20033;-86
2022/06/15 08:00:07;;;;;;;8.75;3.38;;;;;;;26.61;31.71;101813.78;4996910;28;20034;-87
2022/06/15 08:02:33;;;;;;;6.60;2.88;;;;;;;26.75;31.60;101809.00;5028602;28;20481;-90
2022/06/15 08:04:59;;;;;;;7.90;3.00;;;;;;;26.92;31.34;101815.00;5011429;28;20040;-88
2022/06/15 08:07:24;;;;;;;8.35;2.75;;;;;;;27.06;30.83;101813.03;5021838;28;20030;-90
2022/06/15 08:09:50;;;;;;;6.03;2.88;;;;;;;27.00;31.05;101825.03;5013103;28;20495;-87
2022/06/15 08:12:16;;;;;;;7.65;2.78;;;;;;;27.06;31.19;101829.06;5025005;28;20029;-88
2022/06/15 08:14:50;;;;;;;10.75;2.83;;;;;;;27.38;30.26;101824.25;5003885;28;20115;-85
2022/06/15 08:17:24;;;;;;;10.30;2.80;;;;;;;27.52;29.91;101812.19;5005699;28;20057;-84
2022/06/15 08:19:56;;;;;;;8.43;2.33;;;;;;;27.47;29.70;101807.00;5019359;28;20034;-85
2022/06/15 08:22:23;;;;;;;17.67;3.10;;;;;;;27.48;30.04;101804.97;4994266;28;20103;-91
2022/06/15 08:24:49;;;;;;;8.88;2.67;;;;;;;27.73;29.72;101802.13;5012459;28;20040;-92
2022/06/15 08:27:17;;;;;;;8.52;2.70;;;;;;;27.83;29.94;101801.31;4994745;28;20037;-87
2022/06/15 08:29:45;;;;;;;31.92;5.07;;;;;;;27.91;29.89;101800.88;5005188;28;20042;-85
2022/06/15 08:32:10;;;;;;;8.98;2.67;;;;;;;27.93;30.56;101803.28;5001400;28;20030;-85
2022/06/15 08:34:37;;;;;;;10.10;2.95;;;;;;;28.05;30.15;101808.47;5001443;28;20029;-83
2022/06/15 08:37:08;;;;;;;11.52;2.42;;;;;;;28.06;30.09;101801.63;5013651;28;20377;-85
2022/06/15 08:39:35;;;;;;;5.57;2.53;;;;;;;27.99;30.28;101809.28;5017258;28;20036;-86
2022/06/15 08:42:14;;;;;;;6.45;2.25;;;;;;;27.94;30.04;101799.25;5034695;28;20041;-86
2022/06/15 08:45:11;;;;;;;11.10;2.63;;;;;;;28.22;29.99;101805.97;5027442;28;20029;-86
2022/06/15 08:47:58;;;;;;;10.07;3.08;;;;;;;28.19;30.15;101807.59;5014867;28;20037;-85
2022/06/15 08:50:47;;;;;;;6.10;2.55;;;;;;;28.38;30.27;101809.13;5015992;28;20033;-94
2022/06/15 08:53:30;;;;;;;7.32;2.83;;;;;;;28.55;30.42;101808.22;5032490;28;20037;-88
2022/06/15 08:56:19;;;;;;;9.00;2.53;;;;;;;28.37;30.76;101804.72;5008696;28;20479;-86
2022/06/15 08:58:46;;;;;;;5.40;2.83;;;;;;;28.48;30.84;101805.44;5031756;28;20068;-85
2022/06/15 09:01:30;;;;;;;7.22;2.75;;;;;;;28.43;30.50;101805.91;5014212;28;20033;-87
2022/06/15 09:04:14;;;;;;;7.30;2.80;;;;;;;28.37;30.57;101804.72;5015420;28;20476;-91
2022/06/15 09:07:09;;;;;;;6.75;2.88;;;;;;;28.45;30.36;101809.88;5033321;28;20080;-91
2022/06/15 09:09:46;;;;;;;6.07;3.13;;;;;;;28.62;30.14;101804.56;5015904;28;20383;-91
2022/06/15 09:15:21;;;;;;;8.38;3.22;;;;;;;28.62;29.40;101813.78;5031978;28;20098;-88
2022/06/15 09:17:48;;;;;;;;;;;;;;;28.63;29.71;101818.19;5015695;28;20048;-91
2022/06/15 09:20:23;;;;;;;47.67;7.10;;;;;;;28.47;29.66;101813.06;5015894;28;20560;-89
2022/06/15 09:22:58;;;;;;;8.38;2.80;;;;;;;28.69;29.08;101810.94;5015413;28;20046;-89
2022/06/15 09:25:32;;;;;;;29.35;5.38;;;;;;;28.63;29.25;101812.56;5015209;28;20045;-89
2022/06/15 09:28:01;;;;;;;9.18;2.88;;;;;;;28.71;29.01;101816.13;5014961;28;20152;-86
2022/06/15 09:30:31;;;;;;;6.50;2.58;;;;;;;28.93;29.32;101823.25;5014849;28;20033;-86
2022/06/15 09:33:13;;;;;;;6.97;3.00;;;;;;;28.89;29.59;101822.44;5032327;28;20033;-86
2022/06/15 09:35:47;;;;;;;56.47;14.02;;;;;;;28.78;29.87;101834.97;5018163;28;20072;-89
2022/06/15 09:38:15;;;;;;;5.80;2.95;;;;;;;28.91;29.88;101831.31;5036644;28;20033;-86
2022/06/15 09:40:51;;;;;;;13.45;3.05;;;;;;;28.89;29.92;101821.66;5018216;28;20037;-90
2022/06/15 09:43:23;;;;;;;5.47;2.53;;;;;;;28.88;29.82;101829.28;5036088;28;20044;-87
2022/06/15 09:46:04;;;;;;;11.50;2.80;;;;;;;28.86;29.83;101828.88;5035091;28;20058;-88
2022/06/15 09:49:01;;;;;;;10.60;3.08;;;;;;;28.77;30.24;101830.56;5020486;28;20618;-87
2022/06/15 09:51:59;;;;;;;9.20;3.55;;;;;;;28.77;29.79;101839.00;5014480;28;20113;-87
2022/06/15 09:54:36;;;;;;;5.85;2.40;;;;;;;28.79;29.64;101828.94;4998715;28;20038;-87
2022/06/15 09:57:02;;;;;;;8.48;2.33;;;;;;;28.89;29.20;101824.47;4999228;28;20484;-87
2022/06/15 09:59:33;;;;;;;11.93;2.97;;;;;;;28.98;28.87;101827.63;5000495;28;20030;-87
2022/06/15 10:02:02;;;;;;;7.32;2.45;;;;;;;28.94;28.50;101832.47;5016725;28;20029;-88
2022/06/15 10:04:31;;;;;;;4.78;2.50;;;;;;;29.13;29.08;101829.13;4999329;28;20404;-87
2022/06/15 10:07:25;;;;;;;9.00;3.13;;;;;;;29.19;28.45;101830.28;4999430;28;20049;-88
2022/06/15 10:09:55;;;;;;;6.05;2.75;;;;;;;29.22;28.79;101821.00;4993837;28;20044;-86
2022/06/15 10:12:56;;;;;;;5.88;2.65;;;;;;;29.25;28.36;101823.00;5016283;28;20054;-88
2022/06/15 10:15:43;;;;;;;5.95;2.60;;;;;;;29.34;28.41;101828.13;4999151;28;20062;-87
2022/06/15 10:18:21;;;;;;;6.43;2.60;;;;;;;29.22;28.71;101818.19;5001102;28;20160;-87
2022/06/15 10:21:12;;;;;;;10.05;3.33;;;;;;;29.12;28.98;101821.09;4999218;28;20507;-87
2022/06/15 10:24:04;;;;;;;16.58;3.25;;;;;;;29.26;28.13;101821.78;4976213;28;20378;-87
2022/06/15 10:27:14;;;;;;;9.80;2.63;;;;;;;29.39;28.26;101819.22;4999081;28;20041;-87
2022/06/15 10:29:40;;;;;;;11.10;3.15;;;;;;;29.54;28.05;101817.09;4985395;28;20029;-90
2022/06/15 10:32:09;;;;;;;6.10;2.72;;;;;;;29.65;27.67;101814.19;4999041;28;20056;-87
2022/06/15 10:34:50;;;;;;;10.85;3.05;;;;;;;29.68;27.31;101804.88;5000454;28;20034;-87
2022/06/15 10:37:31;;;;;;;7.22;2.47;;;;;;;29.73;27.24;101813.69;4998231;28;20026;-86
2022/06/15 10:40:01;;;;;;;7.03;2.47;;;;;;;29.60;27.45;101818.25;4998528;28;20026;-87
2022/06/15 10:42:40;;;;;;;7.68;2.67;;;;;;;29.62;27.32;101815.81;4998355;28;20029;-87
2022/06/15 10:45:19;;;;;;;6.60;2.53;;;;;;;29.57;27.30;101819.09;4999082;28;20088;-87
2022/06/15 10:48:25;;;;;;;9.57;2.53;;;;;;;29.64;27.35;101819.03;5016447;28;20029;-87
2022/06/15 10:51:04;;;;;;;7.28;2.15;;;;;;;29.55;27.35;101813.88;4939759;29;20086;-87
2022/06/15 10:53:39;;;;;;;4.32;2.35;;;;;;;29.39;27.00;101819.22;4992122;28;20129;-88
2022/06/15 11:02:32;;;;;;;9.50;3.25;;;;;;;29.40;27.28;101806.78;4955843;29;20031;-86
2022/06/15 11:05:04;;;;;;;9.27;2.70;;;;;;;29.53;26.71;101812.69;4998362;28;20536;-84
2022/06/15 11:07:46;;;;;;;5.13;2.28;;;;;;;29.47;27.03;101817.97;4997861;28;20033;-85
2022/06/15 11:10:31;;;;;;;7.50;2.60;;;;;;;29.50;26.53;101822.78;4997821;28;20026;-85
2022/06/15 11:13:21;;;;;;;12.30;2.45;;;;;;;29.54;26.67;101826.34;4998713;28;20057;-85
2022/06/15 11:18:38;;;;;;;5.93;2.28;;;;;;;29.35;27.46;101823.31;5016320;28;20041;-94
2022/06/15 11:21:09;;;;;;;10.60;2.75;;;;;;;29.32;27.95;101821.31;5015728;28;20030;-85
2022/06/15 11:23:47;;;;;;;4.13;2.03;;;;;;;29.39;27.91;101821.25;4997882;28;20480;-85
2022/06/15 11:29:37;;;;;;;6.90;2.20;;;;;;;28.83;28.20;101817.69;5015875;28;20112;-85
2022/06/15 11:32:25;;;;;;;11.48;2.85;;;;;;;29.06;28.03;101820.75;4997537;28;20054;-83
2022/06/15 11:35:12;;;;;;;7.10;2.50;;;;;;;29.03;28.02;101832.84;4970170;28;20583;-85
2022/06/15 11:37:59;;;;;;;9.30;2.95;;;;;;;28.99;27.99;101835.66;4998382;28;20025;-90
2022/06/15 11:40:46;;;;;;;6.97;2.33;;;;;;;28.87;29.26;101832.50;4997038;28;20029;-85
2022/06/15 11:43:19;;;;;;;6.05;2.58;;;;;;;29.14;28.69;101841.97;4997497;28;20555;-83
2022/06/15 11:46:08;;;;;;;9.35;2.67;;;;;;;29.24;29.21;101827.00;4998009;28;20057;-85
2022/06/15 11:48:58;;;;;;;9.60;2.95;;;;;;;29.54;28.05;101828.34;4970017;28;20095;-92
2022/06/15 11:51:42;;;;;;;;;;;;;;;29.08;28.75;101829.56;4997635;28;20026;-85
2022/06/15 11:54:34;;;;;;;11.48;3.13;;;;;;;29.12;28.94;101833.16;5015815;28;19946;-85
2022/06/15 11:57:15;;;;;;;7.30;2.65;;;;;;;29.38;28.21;101819.66;5015853;28;20033;-85
2022/06/15 12:00:13;;;;;;;6.55;2.30;;;;;;;29.26;28.06;101829.41;4997233;28;20638;-85
2022/06/15 12:02:57;;;;;;;10.60;2.65;;;;;;;29.19;28.43;101832.28;4997591;28;20136;-85
2022/06/15 12:05:50;;;;;;;6.25;2.60;;;;;;;28.80;28.98;101833.38;5015821;28;20028;-85
2022/06/15 12:08:22;;;;;;;9.00;2.42;;;;;;;28.95;28.94;101829.28;4996890;28;20033;-85